createdAt,value
2023-02-28T00:00:56.533Z,3.20
2023-02-28T00:03:23.474Z,3.10
2023-02-28T00:05:50.990Z,3.10
2023-02-28T00:08:19.827Z,3.10
2023-02-28T00:10:47.258Z,3.10
2023-02-28T00:13:14.294Z,3.10
2023-02-28T00:15:42.628Z,3.10
2023-02-28T00:18:09.544Z,3.10
2023-02-28T00:20:37.009Z,3.20
2023-02-28T00:23:04.340Z,3.10
2023-02-28T00:25:33.133Z,3.10
2023-02-28T00:28:00.108Z,3.10
2023-02-28T00:30:27.112Z,3.10
2023-02-28T00:32:54.578Z,3.10
2023-02-28T00:35:21.545Z,3.00
2023-02-28T00:37:50.612Z,3.10
2023-02-28T00:40:17.856Z,3.10
2023-02-28T00:42:46.207Z,3.00
2023-02-28T00:45:13.701Z,2.90
2023-02-28T00:47:40.668Z,2.90
2023-02-28T00:50:10.163Z,2.90
2023-02-28T00:52:37.107Z,2.90
2023-02-28T00:55:05.517Z,2.90
2023-02-28T00:57:33.018Z,2.90
2023-02-28T01:00:02.413Z,2.90
2023-02-28T01:02:29.802Z,2.90
2023-02-28T01:04:57.798Z,2.80
2023-02-28T01:07:25.354Z,2.80
2023-02-28T01:09:52.352Z,2.80
2023-02-28T01:12:19.782Z,2.80
2023-02-28T01:14:47.209Z,2.70
2023-02-28T01:17:15.490Z,2.70
2023-02-28T01:19:42.513Z,2.70
2023-02-28T01:22:10.049Z,2.80
2023-02-28T01:24:38.715Z,2.70
2023-02-28T01:27:05.693Z,2.70
2023-02-28T01:29:33.110Z,2.70
2023-02-28T01:32:00.602Z,2.60
2023-02-28T01:34:29.537Z,2.50
2023-02-28T01:36:56.554Z,2.50
2023-02-28T01:39:24.207Z,2.50
2023-02-28T01:41:51.130Z,2.50
2023-02-28T01:44:57.258Z,2.40
2023-02-28T01:47:27.695Z,2.30
2023-02-28T01:49:56.502Z,2.30
2023-02-28T01:52:26.372Z,2.40
2023-02-28T01:54:58.062Z,2.40
2023-02-28T01:57:30.902Z,2.40
2023-02-28T02:00:02.564Z,2.40
2023-02-28T02:02:30.894Z,2.30
2023-02-28T02:05:05.170Z,2.30
2023-02-28T02:07:36.997Z,2.30
2023-02-28T02:10:15.660Z,2.30
2023-02-28T02:13:07.183Z,2.20
2023-02-28T02:15:39.800Z,2.30
2023-02-28T02:18:20.910Z,2.40
2023-02-28T02:21:48.089Z,2.40
2023-02-28T02:25:13.184Z,2.30
2023-02-28T02:28:13.852Z,2.30
2023-02-28T02:31:12.500Z,2.30
2023-02-28T02:34:34.598Z,2.30
2023-02-28T02:37:14.430Z,2.40
2023-02-28T02:39:49.986Z,2.30
2023-02-28T02:42:27.149Z,2.20
2023-02-28T02:45:01.148Z,2.20
2023-02-28T02:47:32.687Z,2.20
2023-02-28T02:50:07.605Z,2.20
2023-02-28T02:52:40.657Z,2.20
2023-02-28T02:55:12.515Z,2.20
2023-02-28T02:57:46.283Z,2.20
2023-02-28T03:00:15.972Z,2.20
2023-02-28T03:02:45.877Z,2.10
2023-02-28T03:05:22.337Z,2.10
2023-02-28T03:07:49.478Z,2.20
2023-02-28T03:10:36.799Z,2.10
2023-02-28T03:14:11.058Z,2.20
2023-02-28T03:16:55.844Z,2.20
2023-02-28T03:19:46.404Z,2.10
2023-02-28T03:22:39.011Z,2.10
2023-02-28T03:25:10.692Z,2.00
2023-02-28T03:27:42.534Z,2.00
2023-02-28T03:30:17.349Z,2.00
2023-02-28T03:32:51.367Z,2.00
2023-02-28T03:35:23.770Z,2.00
2023-02-28T03:38:01.445Z,1.90
2023-02-28T03:40:34.715Z,1.90
2023-02-28T03:43:08.971Z,1.90
2023-02-28T03:45:40.440Z,1.90
2023-02-28T03:48:14.441Z,1.90
2023-02-28T03:50:47.673Z,1.90
2023-02-28T03:53:21.456Z,1.90
2023-02-28T03:55:54.617Z,1.80
2023-02-28T03:58:27.505Z,1.90
2023-02-28T04:01:09.163Z,1.80
2023-02-28T04:03:37.767Z,1.80
2023-02-28T04:06:07.395Z,1.80
2023-02-28T04:08:37.176Z,1.80
2023-02-28T04:11:13.297Z,1.80
2023-02-28T04:13:41.000Z,1.80
2023-02-28T04:16:18.809Z,1.80
2023-02-28T04:18:51.602Z,1.80
2023-02-28T04:21:21.636Z,1.90
2023-02-28T04:23:50.171Z,1.80
2023-02-28T04:26:17.940Z,1.90
2023-02-28T04:28:45.098Z,1.80
2023-02-28T04:31:12.518Z,1.80
2023-02-28T04:33:40.037Z,1.90
2023-02-28T04:36:09.898Z,1.80
2023-02-28T04:38:40.411Z,1.80
2023-02-28T04:41:09.349Z,1.90
2023-02-28T04:43:37.141Z,1.90
2023-02-28T04:46:07.031Z,1.80
2023-02-28T04:48:37.336Z,1.80
2023-02-28T04:51:07.662Z,1.80
2023-02-28T04:53:36.102Z,1.70
2023-02-28T04:56:03.586Z,1.70
2023-02-28T04:58:32.310Z,1.70
2023-02-28T05:01:05.775Z,1.70
2023-02-28T05:03:32.854Z,1.70
2023-02-28T05:06:00.604Z,1.70
2023-02-28T05:08:30.641Z,1.70
2023-02-28T05:10:58.199Z,1.70
2023-02-28T05:13:26.061Z,1.60
2023-02-28T05:15:55.114Z,1.60
2023-02-28T05:18:23.967Z,1.60
2023-02-28T05:20:51.743Z,1.70
2023-02-28T05:23:21.190Z,1.70
2023-02-28T05:25:48.809Z,1.60
2023-02-28T05:28:16.085Z,1.70
2023-02-28T05:30:43.801Z,1.70
2023-02-28T05:33:13.743Z,1.70
2023-02-28T05:35:42.579Z,1.60
2023-02-28T05:38:09.863Z,1.60
2023-02-28T05:43:24.503Z,1.60
2023-02-28T05:45:52.750Z,1.60
2023-02-28T05:48:21.815Z,1.70
2023-02-28T05:50:48.987Z,1.70
2023-02-28T05:53:17.394Z,1.80
2023-02-28T05:58:32.225Z,1.80
2023-02-28T06:01:01.195Z,1.80
2023-02-28T06:03:29.688Z,1.70
2023-02-28T06:05:57.255Z,1.80
2023-02-28T06:08:24.993Z,1.80
2023-02-28T06:10:52.180Z,1.80
2023-02-28T06:16:04.456Z,1.80
2023-02-28T06:18:33.124Z,1.80
2023-02-28T06:21:00.894Z,1.80
2023-02-28T06:23:29.098Z,1.80
2023-02-28T06:25:59.422Z,1.70
2023-02-28T06:28:28.878Z,1.80
2023-02-28T06:30:56.552Z,1.80
2023-02-28T06:33:24.287Z,1.80
2023-02-28T06:35:53.540Z,1.80
2023-02-28T06:38:21.743Z,1.90
2023-02-28T06:40:55.731Z,1.80
2023-02-28T06:43:24.435Z,1.80
2023-02-28T06:45:51.846Z,1.70
2023-02-28T06:48:20.641Z,1.80
2023-02-28T06:50:48.435Z,1.80
2023-02-28T06:53:19.485Z,1.90
2023-02-28T06:55:46.638Z,1.90
2023-02-28T06:58:16.637Z,1.90
2023-02-28T07:00:44.874Z,1.90
2023-02-28T07:03:13.818Z,1.90
2023-02-28T07:05:41.913Z,2.00
2023-02-28T07:08:09.374Z,1.90
2023-02-28T07:10:40.395Z,2.00
2023-02-28T07:13:10.055Z,2.00
2023-02-28T07:15:40.530Z,2.00
2023-02-28T07:18:09.531Z,2.00
2023-02-28T07:20:36.926Z,2.10
2023-02-28T07:23:04.589Z,2.10
2023-02-28T07:25:32.422Z,2.10
2023-02-28T07:28:02.813Z,2.10
2023-02-28T07:30:30.718Z,2.10
2023-02-28T07:32:58.462Z,2.20
2023-02-28T07:35:26.417Z,2.20
2023-02-28T07:37:56.471Z,2.20
2023-02-28T07:40:24.189Z,2.30
2023-02-28T07:42:51.391Z,2.30
2023-02-28T07:45:21.065Z,2.30
2023-02-28T07:47:48.236Z,2.30
2023-02-28T07:50:16.842Z,2.40
2023-02-28T07:52:44.487Z,2.40
2023-02-28T07:55:11.901Z,2.40
2023-02-28T07:57:39.911Z,2.40
2023-02-28T08:00:12.256Z,2.50
2023-02-28T08:02:40.981Z,2.60
2023-02-28T08:05:10.029Z,2.60
2023-02-28T08:07:37.177Z,2.70
2023-02-28T08:10:06.622Z,2.70
2023-02-28T08:12:33.919Z,2.80
2023-02-28T08:15:01.025Z,2.90
2023-02-28T08:17:28.338Z,2.80
2023-02-28T08:19:57.210Z,2.80
2023-02-28T08:22:24.304Z,2.90
2023-02-28T08:24:51.520Z,2.90
2023-02-28T08:27:19.248Z,2.90
2023-02-28T08:29:46.964Z,2.90
2023-02-28T08:32:27.498Z,2.90
2023-02-28T08:34:58.415Z,3.00
2023-02-28T08:37:25.896Z,3.00
2023-02-28T08:39:56.213Z,3.10
2023-02-28T08:42:24.415Z,3.20
2023-02-28T08:44:51.735Z,3.20
2023-02-28T08:47:19.669Z,3.20
2023-02-28T08:49:47.245Z,3.20
2023-02-28T08:52:16.280Z,3.30
2023-02-28T08:54:43.452Z,3.30
2023-02-28T08:57:10.846Z,3.30
2023-02-28T08:59:38.468Z,3.40
2023-02-28T09:02:05.544Z,3.50
2023-02-28T09:04:32.638Z,3.50
2023-02-28T09:07:00.208Z,3.60
2023-02-28T09:09:28.714Z,3.60
2023-02-28T09:11:57.092Z,3.70
2023-02-28T09:14:24.464Z,3.70
2023-02-28T09:16:51.735Z,3.70
2023-02-28T09:19:19.416Z,3.70
2023-02-28T09:21:47.016Z,3.70
2023-02-28T09:24:16.057Z,3.80
2023-02-28T09:26:56.497Z,3.90
2023-02-28T09:29:31.580Z,3.90
2023-02-28T09:31:59.775Z,3.80
2023-02-28T09:34:27.448Z,3.90
2023-02-28T09:36:56.386Z,4.10
2023-02-28T09:39:24.375Z,4.10
2023-02-28T09:41:55.773Z,4.10
2023-02-28T09:44:31.842Z,4.20
2023-02-28T09:47:02.337Z,4.30
2023-02-28T09:49:40.475Z,4.30
2023-02-28T09:52:12.541Z,4.40
2023-02-28T09:54:40.611Z,4.30
2023-02-28T09:57:18.074Z,4.30
2023-02-28T10:00:09.448Z,4.30
2023-02-28T10:03:00.744Z,4.40
2023-02-28T10:05:35.203Z,4.50
2023-02-28T10:08:10.840Z,4.50
2023-02-28T10:10:42.570Z,4.40
2023-02-28T10:13:23.358Z,4.50
2023-02-28T10:15:57.184Z,4.60
2023-02-28T10:18:29.106Z,4.60
2023-02-28T10:20:57.826Z,4.60
2023-02-28T10:23:29.649Z,4.70
2023-02-28T10:26:02.034Z,4.70
2023-02-28T10:28:31.985Z,4.80
2023-02-28T10:31:00.171Z,4.90
2023-02-28T10:33:31.811Z,4.90
2023-02-28T10:36:00.122Z,5.00
2023-02-28T10:38:34.349Z,5.10
2023-02-28T10:41:10.798Z,5.10
2023-02-28T10:43:42.979Z,5.20
2023-02-28T10:46:26.410Z,5.30
2023-02-28T10:49:05.005Z,5.40
2023-02-28T10:51:41.264Z,5.30
2023-02-28T10:54:17.904Z,5.10
2023-02-28T10:56:45.583Z,4.90
2023-02-28T10:59:32.338Z,4.80
2023-02-28T11:02:00.124Z,4.70
2023-02-28T11:04:40.353Z,4.70
2023-02-28T11:07:21.530Z,4.80
2023-02-28T11:09:52.594Z,5.00
2023-02-28T11:12:24.864Z,5.10
2023-02-28T11:14:57.627Z,5.10
2023-02-28T11:17:27.307Z,5.10
2023-02-28T11:20:00.758Z,5.00
2023-02-28T11:22:31.185Z,4.90
2023-02-28T11:25:01.802Z,4.90
2023-02-28T11:27:50.468Z,4.80
2023-02-28T11:30:38.076Z,4.80
2023-02-28T11:33:29.490Z,4.80
2023-02-28T11:36:01.357Z,4.90
2023-02-28T11:38:29.005Z,5.00
2023-02-28T11:41:18.007Z,4.90
2023-02-28T11:44:07.066Z,4.90
2023-02-28T11:46:46.945Z,4.90
2023-02-28T11:49:40.100Z,4.90
2023-02-28T11:52:22.696Z,5.00
2023-02-28T11:55:14.650Z,5.00
2023-02-28T11:58:11.913Z,5.00
2023-02-28T12:00:55.060Z,5.10
2023-02-28T12:03:33.193Z,5.20
2023-02-28T12:06:17.834Z,5.20
2023-02-28T12:08:55.412Z,5.20
2023-02-28T12:11:37.582Z,5.20
2023-02-28T12:14:45.131Z,5.10
2023-02-28T12:17:27.262Z,5.10
2023-02-28T12:20:10.758Z,5.10
2023-02-28T12:22:49.051Z,5.20
2023-02-28T12:25:49.653Z,5.30
2023-02-28T12:28:22.880Z,5.40
2023-02-28T12:30:58.062Z,5.50
2023-02-28T12:33:34.379Z,5.50
2023-02-28T12:36:11.684Z,5.40
2023-02-28T12:38:45.756Z,5.50
2023-02-28T12:41:18.306Z,5.50
2023-02-28T12:43:50.144Z,5.50
2023-02-28T12:46:23.133Z,5.50
2023-02-28T12:48:56.562Z,5.50
2023-02-28T12:51:27.839Z,5.50
2023-02-28T12:54:08.197Z,5.50
2023-02-28T12:56:45.348Z,5.60
2023-02-28T12:59:24.226Z,5.60
2023-02-28T13:02:35.028Z,5.60
2023-02-28T13:05:26.213Z,5.70
2023-02-28T13:08:25.381Z,5.70
2023-02-28T13:10:55.664Z,5.70
2023-02-28T13:13:26.867Z,5.70
2023-02-28T13:16:05.242Z,5.70
2023-02-28T13:18:38.281Z,5.70
2023-02-28T13:21:10.931Z,5.70
2023-02-28T13:24:00.993Z,5.70
2023-02-28T13:27:12.767Z,5.80
2023-02-28T13:29:45.542Z,5.90
2023-02-28T13:32:38.425Z,5.90
2023-02-28T13:35:38.700Z,5.90
2023-02-28T13:38:35.826Z,6.00
2023-02-28T13:41:50.556Z,6.00
2023-02-28T13:44:21.275Z,6.10
2023-02-28T13:47:29.508Z,6.10
2023-02-28T13:50:20.415Z,6.10
2023-02-28T13:52:57.946Z,6.10
2023-02-28T13:55:30.541Z,6.10
2023-02-28T13:58:28.559Z,6.10
2023-02-28T14:01:24.127Z,6.10
2023-02-28T14:04:42.015Z,6.10
2023-02-28T14:07:18.242Z,6.10
2023-02-28T14:09:56.458Z,6.00
2023-02-28T14:13:01.232Z,6.00
2023-02-28T14:15:59.554Z,6.00
2023-02-28T14:18:31.908Z,6.00
2023-02-28T14:21:12.820Z,6.10
2023-02-28T14:24:34.847Z,6.10
2023-02-28T14:27:24.353Z,6.10
2023-02-28T14:30:42.418Z,6.10
2023-02-28T14:33:27.618Z,6.20
2023-02-28T14:36:08.766Z,6.20
2023-02-28T14:38:44.300Z,6.20
2023-02-28T14:41:22.370Z,6.10
2023-02-28T14:43:54.710Z,6.10
2023-02-28T14:46:30.190Z,6.10
2023-02-28T14:48:58.141Z,6.20
2023-02-28T14:51:25.901Z,6.10
2023-02-28T14:53:59.970Z,6.20
2023-02-28T14:56:34.116Z,6.20
2023-02-28T14:59:01.899Z,6.10
2023-02-28T15:01:32.745Z,6.10
2023-02-28T15:04:06.880Z,6.00
2023-02-28T15:06:35.056Z,6.00
2023-02-28T15:09:12.040Z,6.10
2023-02-28T15:11:42.148Z,6.10
2023-02-28T15:14:19.639Z,6.10
2023-02-28T15:16:53.587Z,6.10
2023-02-28T15:19:26.025Z,6.00
2023-02-28T15:22:00.325Z,6.00
2023-02-28T15:24:38.521Z,6.00
2023-02-28T15:27:10.859Z,6.00
2023-02-28T15:29:46.953Z,6.10
2023-02-28T15:32:29.435Z,6.10
2023-02-28T15:34:57.862Z,6.10
2023-02-28T15:37:35.713Z,6.10
2023-02-28T15:40:16.334Z,6.10
2023-02-28T15:42:47.352Z,6.10
2023-02-28T15:45:38.373Z,6.00
2023-02-28T15:48:16.358Z,6.00
2023-02-28T15:50:43.805Z,5.90
2023-02-28T15:53:18.162Z,5.90
2023-02-28T15:55:45.925Z,5.90
2023-02-28T15:58:14.829Z,5.90
2023-02-28T16:00:50.450Z,5.90
2023-02-28T16:03:41.978Z,5.90
2023-02-28T16:06:43.248Z,5.90
2023-02-28T16:09:14.489Z,5.90
2023-02-28T16:11:46.001Z,5.90
2023-02-28T16:14:20.269Z,5.80
2023-02-28T16:16:50.447Z,5.80
2023-02-28T16:19:19.405Z,5.70
2023-02-28T16:21:47.290Z,5.70
2023-02-28T16:24:15.133Z,5.70
2023-02-28T16:26:47.462Z,5.70
2023-02-28T16:29:26.322Z,5.70
2023-02-28T16:31:54.756Z,5.70
2023-02-28T16:34:23.905Z,5.60
2023-02-28T16:36:52.321Z,5.60
2023-02-28T16:39:22.221Z,5.60
2023-02-28T16:41:51.703Z,5.60
2023-02-28T16:44:29.099Z,5.60
2023-02-28T16:46:56.962Z,5.60
2023-02-28T16:49:25.540Z,5.60
2023-02-28T16:51:52.731Z,5.60
2023-02-28T16:54:19.987Z,5.50
2023-02-28T16:56:49.680Z,5.50
2023-02-28T16:59:22.407Z,5.50
2023-02-28T17:01:50.553Z,5.40
2023-02-28T17:04:18.503Z,5.40
2023-02-28T17:06:47.366Z,5.40
2023-02-28T17:09:19.401Z,5.30
2023-02-28T17:11:47.652Z,5.30
2023-02-28T17:14:15.510Z,5.30
2023-02-28T17:16:43.955Z,5.20
2023-02-28T17:19:14.983Z,5.20
2023-02-28T17:21:43.218Z,5.20
2023-02-28T17:24:22.125Z,5.20
2023-02-28T17:26:52.614Z,5.20
2023-02-28T17:29:22.873Z,5.10
2023-02-28T17:31:50.141Z,5.10
2023-02-28T17:34:19.671Z,5.10
2023-02-28T17:36:53.765Z,5.10
2023-02-28T17:39:25.524Z,5.10
2023-02-28T17:41:53.245Z,5.10
2023-02-28T17:44:21.600Z,5.10
2023-02-28T17:46:50.900Z,5.10
2023-02-28T17:49:18.889Z,5.00
2023-02-28T17:51:46.407Z,5.00
2023-02-28T17:54:16.062Z,5.00
2023-02-28T17:56:45.947Z,5.00
2023-02-28T17:59:13.677Z,5.00
2023-02-28T18:01:41.362Z,4.90
2023-02-28T18:04:08.749Z,4.90
2023-02-28T18:06:50.881Z,4.80
2023-02-28T18:09:24.468Z,4.70
2023-02-28T18:11:55.978Z,4.70
2023-02-28T18:14:26.447Z,4.70
2023-02-28T18:16:55.207Z,4.70
2023-02-28T18:19:22.910Z,4.70
2023-02-28T18:21:53.254Z,4.60
2023-02-28T18:24:25.317Z,4.60
2023-02-28T18:26:56.655Z,4.60
2023-02-28T18:29:26.974Z,4.60
2023-02-28T18:31:55.802Z,4.50
2023-02-28T18:34:24.155Z,4.50
2023-02-28T18:36:54.008Z,4.50
2023-02-28T18:39:21.598Z,4.40
2023-02-28T18:41:49.354Z,4.40
2023-02-28T18:44:20.225Z,4.40
2023-02-28T18:46:58.217Z,4.40
2023-02-28T18:49:26.865Z,4.40
2023-02-28T18:51:56.959Z,4.30
2023-02-28T18:54:24.368Z,4.20
2023-02-28T18:56:51.943Z,4.20
2023-02-28T18:59:20.822Z,4.20
2023-02-28T19:01:49.140Z,4.20
2023-02-28T19:04:16.881Z,4.20
2023-02-28T19:06:44.062Z,4.30
2023-02-28T19:09:11.726Z,4.30
2023-02-28T19:11:39.551Z,4.30
2023-02-28T19:14:06.813Z,4.30
2023-02-28T19:16:36.273Z,4.20
2023-02-28T19:19:03.555Z,4.30
2023-02-28T19:21:30.805Z,4.20
2023-02-28T19:23:58.031Z,4.30
2023-02-28T19:26:27.406Z,4.20
2023-02-28T19:28:55.031Z,4.20
2023-02-28T19:31:25.209Z,4.20
2023-02-28T19:33:54.470Z,4.20
2023-02-28T19:36:22.485Z,4.10
2023-02-28T19:38:50.307Z,4.10
2023-02-28T19:41:21.384Z,4.10
2023-02-28T19:43:49.392Z,4.10
2023-02-28T19:46:17.359Z,4.10
2023-02-28T19:48:44.989Z,4.10
2023-02-28T19:53:50.312Z,4.10
2023-02-28T19:56:20.146Z,4.00
2023-02-28T19:58:48.001Z,4.00
2023-02-28T20:01:22.133Z,4.10
2023-02-28T20:03:50.435Z,4.10
2023-02-28T20:06:22.426Z,4.10
2023-02-28T20:08:54.549Z,4.10
2023-02-28T20:11:22.039Z,4.10
2023-02-28T20:13:49.509Z,4.10
2023-02-28T20:16:17.042Z,4.00
2023-02-28T20:18:45.387Z,4.10
2023-02-28T20:21:14.456Z,4.10
2023-02-28T20:23:44.381Z,4.10
2023-02-28T20:26:14.458Z,4.10
2023-02-28T20:28:43.182Z,4.10
2023-02-28T20:31:15.482Z,4.10
2023-02-28T20:33:46.719Z,4.00
2023-02-28T20:36:15.881Z,3.90
2023-02-28T20:38:46.844Z,3.90
2023-02-28T20:41:14.813Z,3.90
2023-02-28T20:43:43.045Z,3.90
2023-02-28T20:46:10.700Z,3.90
2023-02-28T20:48:39.804Z,3.90
2023-02-28T20:51:07.228Z,3.90
2023-02-28T20:53:36.775Z,3.90
2023-02-28T20:56:12.123Z,3.90
2023-02-28T20:58:49.935Z,3.80
2023-02-28T21:01:54.598Z,3.80
2023-02-28T21:04:43.609Z,3.70
2023-02-28T21:07:27.144Z,3.70
2023-02-28T21:10:01.621Z,3.60
2023-02-28T21:12:35.983Z,3.60
2023-02-28T21:15:03.945Z,3.50
2023-02-28T21:17:31.903Z,3.50
2023-02-28T21:20:23.828Z,3.50
2023-02-28T21:22:53.658Z,3.60
2023-02-28T21:25:30.285Z,3.40
2023-02-28T21:28:05.218Z,3.30
2023-02-28T21:30:34.548Z,3.30
2023-02-28T21:33:10.142Z,3.20
2023-02-28T21:35:44.173Z,3.00
2023-02-28T21:38:18.438Z,2.90
2023-02-28T21:40:53.291Z,2.90
2023-02-28T21:43:22.550Z,2.90
2023-02-28T21:45:51.033Z,2.80
2023-02-28T21:48:21.146Z,2.90
2023-02-28T21:51:02.849Z,2.70
2023-02-28T21:53:31.231Z,2.70
2023-02-28T21:56:36.141Z,2.60
2023-02-28T21:59:07.245Z,2.60
2023-02-28T22:01:38.348Z,2.60
2023-02-28T22:04:24.181Z,2.70
2023-02-28T22:06:57.452Z,2.70
2023-02-28T22:09:31.849Z,2.50
2023-02-28T22:12:06.491Z,2.50
2023-02-28T22:14:49.710Z,2.50
2023-02-28T22:17:23.678Z,2.50
2023-02-28T22:19:53.636Z,2.50
2023-02-28T22:22:38.759Z,2.40
2023-02-28T22:25:11.428Z,2.40
2023-02-28T22:27:52.617Z,2.20
2023-02-28T22:30:22.312Z,2.10
2023-02-28T22:32:50.801Z,2.00
2023-02-28T22:35:27.659Z,2.00
2023-02-28T22:37:57.628Z,1.90
2023-02-28T22:40:29.916Z,2.00
2023-02-28T22:43:02.734Z,1.90
2023-02-28T22:45:39.377Z,1.90
2023-02-28T22:48:14.925Z,2.10
2023-02-28T22:50:45.412Z,2.10
2023-02-28T22:53:27.475Z,2.20
2023-02-28T22:55:58.579Z,2.30
2023-02-28T22:58:29.923Z,2.50
2023-02-28T23:01:07.314Z,2.60
2023-02-28T23:03:37.422Z,2.70
2023-02-28T23:06:15.032Z,2.70
2023-02-28T23:08:44.718Z,2.80
2023-02-28T23:11:30.420Z,2.70
2023-02-28T23:14:04.386Z,2.60
2023-02-28T23:16:48.375Z,2.70
2023-02-28T23:19:19.719Z,2.80
2023-02-28T23:21:48.615Z,2.80
2023-02-28T23:24:31.549Z,2.70
2023-02-28T23:27:11.598Z,2.70
2023-02-28T23:29:42.538Z,2.80
2023-02-28T23:32:15.219Z,2.90
2023-02-28T23:34:49.326Z,3.00
2023-02-28T23:37:21.795Z,3.00
2023-02-28T23:39:52.329Z,3.00
2023-02-28T23:42:20.709Z,3.10
2023-02-28T23:44:50.716Z,3.10
2023-02-28T23:47:23.395Z,3.10
2023-02-28T23:49:51.993Z,3.10
2023-02-28T23:52:20.576Z,3.20
2023-02-28T23:54:51.498Z,3.10
2023-02-28T23:57:19.582Z,3.10
2023-02-28T23:59:53.166Z,3.10
